Time;durP1;ratioP1;P1;durP2;ratioP2;P2;SDS_P1;SDS_P2;PMS_P1;PMS_P2;Temp;Humidity;BMP_temperature;BMP_pressure;BME280_temperature;BME280_humidity;BME280_pressure;Samples;Min_cycle;Max_cycle;Signal;HPM_P1;HPM_P2
2023/12/27 00:01:39;;;;;;;9.80;3.50;;;;;;;7.88;88.08;98537.46;79772;1297;3014768;-66
2023/12/27 00:04:05;;;;;;;11.50;4.00;;;;;;;8.14;87.84;98545.87;79801;1292;3013407;-67
2023/12/27 00:06:33;;;;;;;11.20;4.20;;;;;;;8.40;86.91;98548.92;78457;1298;3055985;-65
2023/12/27 00:09:00;;;;;;;8.90;4.30;;;;;;;8.45;85.88;98544.23;79794;1293;3013584;-70
2023/12/27 00:11:28;;;;;;;8.20;4.30;;;;;;;8.36;85.50;98544.67;79772;1292;3011606;-68
2023/12/27 00:13:56;;;;;;;7.90;4.30;;;;;;;7.93;87.61;98556.48;78563;1299;3027516;-68
2023/12/27 00:16:22;;;;;;;10.90;4.70;;;;;;;7.81;88.63;98561.59;79755;1298;3012953;-70
2023/12/27 00:18:49;;;;;;;7.50;3.90;;;;;;;7.61;89.17;98556.76;79753;1292;3012891;-70
2023/12/27 00:21:17;;;;;;;6.80;3.80;;;;;;;7.98;89.12;98553.36;78525;1292;3026233;-65
2023/12/27 00:23:43;;;;;;;7.90;4.10;;;;;;;8.74;85.53;98558.59;79760;1293;3013689;-68
2023/12/27 00:26:10;;;;;;;10.10;4.30;;;;;;;8.59;85.06;98559.54;79852;1295;3011978;-65
2023/12/27 00:28:40;;;;;;;7.60;4.20;;;;;;;8.36;85.51;98567.34;78570;1297;3051989;-67
2023/12/27 00:31:06;;;;;;;10.10;5.20;;;;;;;8.11;86.90;98569.30;79825;1292;3011575;-66
2023/12/27 00:33:33;;;;;;;11.60;4.70;;;;;;;7.93;87.15;98560.34;79874;1292;3011624;-65
2023/12/27 00:36:01;;;;;;;8.80;4.00;;;;;;;7.53;89.72;98570.49;78559;1298;3026616;-67
2023/12/27 00:38:28;;;;;;;11.70;4.30;;;;;;;7.59;89.83;98563.52;79795;1293;3013772;-66
2023/12/27 00:40:54;;;;;;;8.40;4.30;;;;;;;8.24;88.50;98566.85;79713;1292;3011680;-69
2023/12/27 00:43:22;;;;;;;12.80;4.80;;;;;;;8.53;86.05;98559.95;78616;1297;3026982;-67
2023/12/27 00:45:49;;;;;;;15.70;6.30;;;;;;;8.49;85.62;98564.20;79759;1296;3013668;-63
2023/12/27 00:48:16;;;;;;;10.90;5.20;;;;;;;8.34;85.95;98564.68;79762;1292;3012026;-67
2023/12/27 00:50:44;;;;;;;13.60;5.10;;;;;;;8.01;86.95;98563.27;78555;1292;3026729;-67
2023/12/27 00:53:11;;;;;;;14.80;6.20;;;;;;;7.81;88.16;98564.41;79684;1292;3018735;-64
2023/12/27 00:55:38;;;;;;;10.60;4.80;;;;;;;7.76;88.51;98572.75;79673;1292;3012010;-64
2023/12/27 00:58:05;;;;;;;14.20;5.20;;;;;;;8.12;87.58;98570.64;78505;1298;3026211;-67
2023/12/27 01:00:32;;;;;;;8.80;4.70;;;;;;;8.50;86.35;98577.92;79779;1298;3014204;-66
2023/12/27 01:02:59;;;;;;;8.60;4.20;;;;;;;8.23;86.51;98581.05;79850;1292;3011609;-65
2023/12/27 01:05:27;;;;;;;11.30;5.40;;;;;;;8.21;86.51;98582.41;78465;1298;3026139;-66
2023/12/27 01:07:53;;;;;;;10.90;5.00;;;;;;;8.06;87.09;98573.30;79844;1295;3013358;-67
2023/12/27 01:10:20;;;;;;;8.50;4.40;;;;;;;7.97;87.20;98568.83;79702;1298;3011409;-66
2023/12/27 01:12:49;;;;;;;13.50;5.20;;;;;;;7.89;88.23;98553.84;78586;1298;3028666;-65
2023/12/27 01:15:16;;;;;;;7.60;4.20;;;;;;;8.57;86.74;98556.67;79731;1297;3016044;-67
2023/12/27 01:17:43;;;;;;;9.10;5.00;;;;;;;8.86;84.16;98555.61;79674;1297;3011430;-66
2023/12/27 01:20:11;;;;;;;10.80;5.90;;;;;;;8.44;85.17;98550.42;78458;1292;3055358;-67
2023/12/27 01:22:38;;;;;;;13.20;6.40;;;;;;;8.30;85.43;98560.91;79872;1293;3013051;-65
2023/12/27 01:25:06;;;;;;;12.90;6.30;;;;;;;8.07;86.51;98559.97;79663;1292;3011532;-67
2023/12/27 01:27:35;;;;;;;14.10;6.80;;;;;;;7.85;87.39;98566.40;78476;1298;3051594;-65
2023/12/27 01:30:01;;;;;;;12.40;5.10;;;;;;;7.97;87.22;98564.07;79761;1297;3013745;-66
2023/12/27 01:32:28;;;;;;;12.40;5.80;;;;;;;8.15;86.81;98557.85;79787;1296;3011548;-67
2023/12/27 01:34:56;;;;;;;12.80;5.70;;;;;;;8.34;86.09;98573.70;78500;1293;3027015;-65
2023/12/27 01:37:23;;;;;;;9.40;5.00;;;;;;;8.35;85.81;98577.16;79764;1298;3013275;-68
2023/12/27 01:39:49;;;;;;;13.70;6.40;;;;;;;8.10;86.34;98573.06;79605;1292;3011706;-66
2023/12/27 01:42:18;;;;;;;12.60;5.70;;;;;;;7.99;87.07;98573.89;78383;1298;3026583;-65
2023/12/27 01:44:44;;;;;;;10.20;4.50;;;;;;;7.94;87.09;98567.26;79627;1297;3019083;-66
2023/12/27 01:47:13;;;;;;;9.90;4.50;;;;;;;8.38;86.54;98564.41;79570;1294;3011448;-66
2023/12/27 01:49:41;;;;;;;11.60;4.70;;;;;;;8.90;83.84;98561.11;78409;1298;3057024;-64
2023/12/27 01:52:10;;;;;;;9.10;5.40;;;;;;;8.79;83.67;98566.08;79745;1292;3019064;-67
2023/12/27 01:54:39;;;;;;;10.90;4.80;;;;;;;8.48;84.54;98568.82;79313;1292;3011773;-65
2023/12/27 01:57:06;;;;;;;9.80;5.30;;;;;;;8.43;84.69;98570.54;79634;1298;3013075;-66
2023/12/27 01:59:33;;;;;;;13.20;5.60;;;;;;;8.24;85.23;98571.94;79460;1299;3011921;-64
2023/12/27 02:02:01;;;;;;;12.00;5.40;;;;;;;7.98;86.86;98569.45;78476;1297;3026291;-64
2023/12/27 02:04:27;;;;;;;8.30;4.50;;;;;;;8.48;86.36;98566.71;79557;1293;3018218;-64
2023/12/27 02:06:55;;;;;;;10.20;5.30;;;;;;;8.55;84.87;98565.41;79731;1292;3011881;-65
2023/12/27 02:09:23;;;;;;;9.80;4.30;;;;;;;8.49;84.68;98569.11;78417;1298;3027737;-66
2023/12/27 02:11:50;;;;;;;8.40;4.60;;;;;;;8.28;85.34;98580.09;79792;1298;3012871;-64
2023/12/27 02:14:16;;;;;;;11.60;5.50;;;;;;;8.10;86.15;98586.10;79828;1298;3011895;-66
2023/12/27 02:16:45;;;;;;;9.00;5.00;;;;;;;8.10;85.98;98591.36;78469;1294;3068515;-67
2023/12/27 02:19:15;;;;;;;8.50;4.40;;;;;;;8.01;86.76;98599.27;79424;1301;3013501;-63
2023/12/27 02:21:43;;;;;;;8.60;4.40;;;;;;;8.71;84.73;98601.15;78403;1292;3048717;-62
2023/12/27 02:24:10;;;;;;;11.60;5.00;;;;;;;9.06;82.63;98600.08;79707;1299;3013327;-64
2023/12/27 02:26:37;;;;;;;8.60;3.60;;;;;;;8.73;83.16;98594.59;79749;1298;3011847;-66
2023/12/27 02:29:05;;;;;;;11.50;4.60;;;;;;;8.54;83.58;98591.80;78574;1293;3027426;-64
2023/12/27 02:31:31;;;;;;;9.00;4.60;;;;;;;8.31;84.81;98597.10;79543;1292;3013723;-65
2023/12/27 02:33:59;;;;;;;8.40;4.10;;;;;;;8.19;85.07;98595.45;79744;1298;3011795;-63
2023/12/27 02:36:27;;;;;;;9.50;3.80;;;;;;;8.44;85.81;98590.56;78512;1298;3028613;-66
2023/12/27 02:38:53;;;;;;;10.10;4.40;;;;;;;8.93;83.85;98583.13;79739;1298;3012990;-67
2023/12/27 02:41:20;;;;;;;10.20;4.90;;;;;;;9.09;82.36;98582.77;79773;1298;3011600;-66
2023/12/27 02:43:48;;;;;;;8.00;4.10;;;;;;;8.84;82.64;98583.17;78527;1297;3025877;-65
2023/12/27 02:46:15;;;;;;;7.50;3.90;;;;;;;8.56;83.56;98584.54;79718;1298;3013676;-67
2023/12/27 02:48:42;;;;;;;8.80;4.60;;;;;;;8.42;83.95;98592.77;79613;1292;3011655;-65
2023/12/27 02:51:10;;;;;;;9.30;3.90;;;;;;;8.36;84.18;98598.38;78560;1298;3048911;-65
2023/12/27 02:53:38;;;;;;;8.10;5.10;;;;;;;8.34;84.71;98600.61;79772;1293;3015357;-67
2023/12/27 02:56:05;;;;;;;7.60;4.10;;;;;;;8.91;83.59;98593.70;79780;1298;3011596;-65
2023/12/27 02:58:33;;;;;;;7.80;3.90;;;;;;;9.27;81.39;98595.27;78775;1298;3051978;-72
2023/12/27 03:01:00;;;;;;;6.80;4.10;;;;;;;9.10;81.06;98590.88;79934;1297;3012850;-65
2023/12/27 03:03:28;;;;;;;11.20;4.40;;;;;;;8.82;82.22;98596.40;79804;1298;3013355;-68
2023/12/27 03:05:56;;;;;;;9.00;4.20;;;;;;;8.75;82.23;98600.21;78575;1293;3048360;-67
2023/12/27 03:08:22;;;;;;;7.00;3.70;;;;;;;8.54;83.02;98597.06;79743;1293;3018803;-64
2023/12/27 03:10:50;;;;;;;10.10;4.30;;;;;;;8.43;83.59;98603.88;79695;1298;3011644;-66
2023/12/27 03:13:17;;;;;;;9.80;4.50;;;;;;;8.88;83.39;98601.45;78539;1298;3026673;-65
2023/12/27 03:15:44;;;;;;;8.20;4.70;;;;;;;8.98;82.20;98602.17;79917;1297;3013442;-69
2023/12/27 03:18:11;;;;;;;10.30;5.50;;;;;;;8.92;81.94;98604.80;79801;1292;3012581;-66
2023/12/27 03:20:38;;;;;;;9.70;4.40;;;;;;;8.64;83.20;98606.70;78560;1298;3025968;-65
2023/12/27 03:23:05;;;;;;;9.40;4.50;;;;;;;8.62;83.09;98600.04;79831;1298;3013537;-66
2023/12/27 03:25:32;;;;;;;9.60;4.90;;;;;;;8.47;83.47;98600.47;79646;1298;3011241;-65
2023/12/27 03:28:00;;;;;;;9.30;5.00;;;;;;;8.31;84.18;98594.67;78508;1298;3027800;-66
2023/12/27 03:30:26;;;;;;;14.30;5.60;;;;;;;8.60;84.81;98587.09;79717;1295;3018750;-67
2023/12/27 03:32:53;;;;;;;17.10;6.20;;;;;;;9.02;82.45;98584.98;79743;1295;3013359;-66
2023/12/27 03:35:21;;;;;;;16.70;6.70;;;;;;;8.82;82.55;98581.38;78414;1298;3028373;-66
2023/12/27 03:37:48;;;;;;;13.20;6.20;;;;;;;8.79;82.89;98589.67;79690;1297;3014124;-66
2023/12/27 03:40:16;;;;;;;17.50;7.40;;;;;;;8.61;83.10;98584.58;79751;1297;3011742;-67
2023/12/27 03:42:44;;;;;;;19.30;7.00;;;;;;;8.36;84.16;98589.11;78485;1296;3052510;-66
2023/12/27 03:45:11;;;;;;;16.50;5.80;;;;;;;8.28;84.41;98584.42;79674;1297;3013386;-65
2023/12/27 03:47:38;;;;;;;10.20;4.70;;;;;;;8.21;84.75;98582.42;79723;1306;3011584;-65
2023/12/27 03:50:06;;;;;;;8.10;4.50;;;;;;;8.92;84.21;98583.87;78663;1298;3025143;-65
2023/12/27 03:52:33;;;;;;;10.00;4.60;;;;;;;9.48;81.33;98585.09;79763;1293;3013284;-64
2023/12/27 03:54:59;;;;;;;10.00;4.60;;;;;;;9.46;80.38;98584.71;79800;1306;3011849;-67
2023/12/27 03:57:27;;;;;;;10.80;5.20;;;;;;;9.12;81.11;98590.05;78519;1298;3051689;-66
2023/12/27 03:59:54;;;;;;;11.60;5.40;;;;;;;8.99;81.34;98581.51;79693;1295;3013088;-65
2023/12/27 04:02:21;;;;;;;13.30;5.40;;;;;;;8.72;81.88;98575.44;79709;1295;3013683;-65
2023/12/27 04:04:48;;;;;;;11.40;5.80;;;;;;;8.62;82.43;98572.64;78531;1297;3028687;-67
2023/12/27 04:07:15;;;;;;;11.50;4.90;;;;;;;8.42;83.27;98579.67;79918;1298;3013698;-64
2023/12/27 04:09:42;;;;;;;12.50;4.90;;;;;;;8.22;85.42;98587.92;79688;1295;3011501;-67
2023/12/27 04:12:10;;;;;;;18.80;6.00;;;;;;;8.84;83.93;98584.06;78459;1298;3025996;-66
2023/12/27 04:14:37;;;;;;;12.40;5.30;;;;;;;9.15;82.65;98583.02;79811;1297;3013129;-64
2023/12/27 04:17:04;;;;;;;14.90;6.40;;;;;;;9.15;81.73;98583.54;79745;1292;3011618;-63
2023/12/27 04:19:32;;;;;;;15.80;6.70;;;;;;;8.94;82.07;98584.46;78577;1298;3026059;-67
2023/12/27 04:21:58;;;;;;;13.60;7.10;;;;;;;8.80;81.95;98590.09;79746;1292;3016305;-67
2023/12/27 04:24:25;;;;;;;15.20;6.90;;;;;;;8.55;82.76;98592.61;79532;1298;3013998;-66
2023/12/27 04:26:53;;;;;;;13.50;6.00;;;;;;;8.31;83.72;98585.96;78473;1298;3026738;-68
2023/12/27 04:29:20;;;;;;;11.70;5.60;;;;;;;8.00;85.74;98584.85;79765;1298;3013294;-67
2023/12/27 04:31:46;;;;;;;10.80;4.90;;;;;;;8.71;85.15;98587.31;79718;1294;3011570;-68
2023/12/27 04:34:14;;;;;;;16.10;5.90;;;;;;;9.03;82.13;98583.98;78458;1292;3026131;-68
2023/12/27 04:36:42;;;;;;;12.50;6.10;;;;;;;8.85;82.36;98579.11;79746;1298;3018647;-68
2023/12/27 04:39:08;;;;;;;15.40;6.80;;;;;;;8.77;82.74;98588.59;79804;1293;3011447;-66
2023/12/27 04:41:36;;;;;;;15.70;6.20;;;;;;;8.48;83.77;98597.09;78568;1298;3053083;-68
2023/12/27 04:44:03;;;;;;;14.40;5.90;;;;;;;8.38;83.92;98602.95;79856;1297;3013518;-66
2023/12/27 04:46:30;;;;;;;18.10;6.80;;;;;;;8.20;84.34;98598.89;79732;1298;3011820;-67
2023/12/27 04:48:58;;;;;;;16.40;5.70;;;;;;;8.22;84.40;98600.15;78446;1297;3028605;-66
2023/12/27 04:51:24;;;;;;;19.30;6.10;;;;;;;8.70;83.30;98594.80;79675;1298;3013711;-68
2023/12/27 04:53:51;;;;;;;20.00;6.80;;;;;;;8.90;82.55;98592.58;79646;1295;3013422;-66
2023/12/27 04:56:20;;;;;;;13.50;5.20;;;;;;;8.87;82.25;98595.36;78531;1298;3026080;-66
2023/12/27 04:58:46;;;;;;;12.70;4.90;;;;;;;8.64;82.46;98595.71;79823;1295;3012909;-68
2023/12/27 05:01:15;;;;;;;15.60;5.70;;;;;;;8.54;82.64;98594.98;79747;1292;3011656;-67
2023/12/27 05:03:44;;;;;;;14.40;5.80;;;;;;;8.17;84.05;98592.16;78461;1298;3048041;-65
2023/12/27 05:06:12;;;;;;;13.30;5.20;;;;;;;8.10;85.10;98591.16;79764;1306;3013338;-65
2023/12/27 05:08:39;;;;;;;15.20;6.20;;;;;;;8.61;84.15;98586.06;79672;1298;3013244;-64
2023/12/27 05:11:21;;;;;;;11.30;5.60;;;;;;;8.97;82.14;98585.67;78453;1298;3053108;-67
2023/12/27 05:13:56;;;;;;;13.90;7.40;;;;;;;8.64;82.85;98593.83;78599;1293;3068304;-69
2023/12/27 05:16:30;;;;;;;15.40;8.70;;;;;;;8.61;82.23;98590.83;78442;1296;3051711;-66
2023/12/27 05:18:56;;;;;;;21.80;9.90;;;;;;;8.15;84.36;98601.14;79725;1296;3013169;-71
2023/12/27 05:21:23;;;;;;;24.50;10.90;;;;;;;8.13;83.92;98597.59;79575;1292;3011794;-62
2023/12/27 05:23:51;;;;;;;19.10;8.40;;;;;;;7.91;85.47;98597.77;78578;1298;3026243;-66
2023/12/27 05:26:17;;;;;;;17.50;7.60;;;;;;;8.56;84.51;98595.47;79701;1297;3013088;-68
2023/12/27 05:28:44;;;;;;;11.50;5.90;;;;;;;8.89;81.93;98598.61;79674;1292;3013235;-69
2023/12/27 05:31:12;;;;;;;13.10;6.30;;;;;;;8.85;81.92;98600.61;78920;1293;3027042;-67
2023/12/27 05:33:38;;;;;;;8.40;4.90;;;;;;;8.71;81.80;98601.70;79773;1292;3012896;-66
2023/12/27 05:36:06;;;;;;;8.70;4.60;;;;;;;8.53;81.98;98597.86;79703;1298;3012003;-68
2023/12/27 05:38:34;;;;;;;7.70;4.40;;;;;;;8.18;83.40;98599.58;78620;1298;3026328;-70
2023/12/27 05:41:00;;;;;;;14.20;5.20;;;;;;;7.99;84.31;98598.52;79746;1292;3013097;-69
2023/12/27 05:43:27;;;;;;;7.40;4.20;;;;;;;8.00;84.28;98605.77;79750;1292;3013303;-67
2023/12/27 05:45:55;;;;;;;9.00;4.90;;;;;;;8.47;83.34;98598.52;78509;1293;3026313;-66
2023/12/27 05:48:22;;;;;;;12.00;5.50;;;;;;;8.75;81.87;98597.95;79847;1292;3013365;-69
2023/12/27 05:50:48;;;;;;;6.20;4.10;;;;;;;8.61;81.68;98595.21;79461;1293;3013262;-69
2023/12/27 05:53:16;;;;;;;8.60;5.50;;;;;;;8.48;81.80;98601.30;78528;1297;3026729;-69
2023/12/27 05:55:43;;;;;;;10.70;4.80;;;;;;;8.25;82.51;98607.67;79721;1297;3013199;-69
2023/12/27 05:58:10;;;;;;;7.60;4.50;;;;;;;7.99;83.59;98607.19;79718;1298;3011562;-71
2023/12/27 06:00:38;;;;;;;9.00;4.60;;;;;;;7.91;83.64;98607.50;78597;1299;3051610;-71
2023/12/27 06:03:05;;;;;;;11.30;4.80;;;;;;;7.86;84.18;98604.38;79801;1298;3013626;-71
2023/12/27 06:05:32;;;;;;;9.50;4.30;;;;;;;8.42;83.65;98615.95;79586;1298;3011911;-68
2023/12/27 06:07:59;;;;;;;9.90;4.70;;;;;;;8.52;81.86;98615.49;78507;1295;3026601;-71
2023/12/27 06:10:26;;;;;;;11.50;6.10;;;;;;;8.59;81.66;98614.91;79775;1297;3013283;-67
2023/12/27 06:12:53;;;;;;;11.90;7.90;;;;;;;8.49;81.86;98616.05;79903;1297;3013421;-70
2023/12/27 06:15:22;;;;;;;18.10;8.30;;;;;;;8.40;81.52;98615.92;78499;1292;3026407;-69
2023/12/27 06:17:48;;;;;;;15.70;8.50;;;;;;;8.03;82.61;98613.93;79816;1292;3013703;-67
2023/12/27 06:20:15;;;;;;;13.40;6.90;;;;;;;7.84;83.56;98612.48;79725;1292;3011673;-69
2023/12/27 06:22:43;;;;;;;13.50;6.90;;;;;;;7.83;83.26;98609.43;78480;1298;3049581;-68
2023/12/27 06:25:09;;;;;;;11.90;6.10;;;;;;;7.67;84.42;98616.51;79672;1298;3013508;-71
2023/12/27 06:27:36;;;;;;;12.30;6.30;;;;;;;8.06;83.66;98609.88;79739;1295;3011602;-68
2023/12/27 06:30:05;;;;;;;12.90;7.00;;;;;;;8.52;82.29;98613.73;78457;1296;3026103;-70
2023/12/27 06:32:32;;;;;;;13.00;7.30;;;;;;;8.35;82.08;98615.71;79770;1292;3013182;-72
2023/12/27 06:34:59;;;;;;;14.30;7.50;;;;;;;8.21;82.31;98617.52;79815;1299;3011646;-69
2023/12/27 06:37:27;;;;;;;15.30;8.00;;;;;;;8.10;82.37;98630.77;78557;1296;3049847;-70
2023/12/27 06:39:53;;;;;;;18.00;8.90;;;;;;;8.01;82.40;98638.29;79756;1298;3013211;-67
2023/12/27 06:42:21;;;;;;;14.50;7.70;;;;;;;7.87;82.86;98638.48;79682;1298;3011809;-68
2023/12/27 06:44:49;;;;;;;12.30;5.70;;;;;;;7.81;82.93;98636.58;78389;1298;3050831;-66
2023/12/27 06:47:16;;;;;;;13.50;7.40;;;;;;;8.30;82.76;98644.15;79728;1295;3015041;-67
2023/12/27 06:49:45;;;;;;;17.30;8.40;;;;;;;8.61;80.82;98648.80;79701;1293;3011538;-69
2023/12/27 06:52:13;;;;;;;13.90;7.40;;;;;;;8.47;80.78;98645.19;78671;1298;3049755;-67
2023/12/27 06:54:40;;;;;;;13.40;7.30;;;;;;;8.42;80.26;98644.95;79834;1298;3018672;-72
2023/12/27 06:57:06;;;;;;;14.30;6.40;;;;;;;8.24;80.72;98643.28;79766;1297;3011416;-68
2023/12/27 06:59:34;;;;;;;10.30;5.80;;;;;;;8.08;80.71;98645.20;78461;1298;3025279;-70
2023/12/27 07:02:01;;;;;;;8.60;4.80;;;;;;;7.87;81.54;98649.96;79754;1292;3013005;-71
2023/12/27 07:04:28;;;;;;;6.10;3.20;;;;;;;7.75;81.86;98644.10;79710;1298;3013546;-67
2023/12/27 07:06:56;;;;;;;8.20;3.30;;;;;;;7.61;82.67;98648.63;78588;1297;3025826;-75
2023/12/27 07:09:22;;;;;;;5.00;2.70;;;;;;;7.95;82.29;98642.88;79867;1297;3013587;-68
2023/12/27 07:11:49;;;;;;;7.00;3.00;;;;;;;8.43;80.28;98648.36;79814;1292;3013176;-69
2023/12/27 07:14:17;;;;;;;6.00;3.20;;;;;;;8.50;79.30;98651.75;78454;1292;3026101;-69
2023/12/27 07:16:44;;;;;;;5.40;3.00;;;;;;;8.26;79.56;98652.56;79928;1293;3018434;-68
2023/12/27 07:19:10;;;;;;;9.80;3.20;;;;;;;7.96;80.59;98650.32;79752;1292;3012201;-74
2023/12/27 07:21:38;;;;;;;7.10;3.30;;;;;;;7.81;81.37;98650.54;78446;1297;3028471;-72
2023/12/27 07:24:06;;;;;;;7.40;3.70;;;;;;;7.64;81.61;98648.23;79700;1298;3013938;-70
2023/12/27 07:26:33;;;;;;;8.00;4.70;;;;;;;7.44;82.24;98650.52;79612;1292;3011471;-72
2023/12/27 07:29:01;;;;;;;8.70;4.90;;;;;;;7.29;83.37;98655.94;78457;1292;3051373;-71
2023/12/27 07:31:28;;;;;;;9.90;6.10;;;;;;;8.11;81.71;98661.19;79658;1292;3013934;-72
2023/12/27 07:33:54;;;;;;;12.00;7.60;;;;;;;8.25;79.57;98662.42;79802;1297;3011605;-70
2023/12/27 07:36:22;;;;;;;16.00;7.90;;;;;;;8.12;79.70;98668.29;78730;1292;3025763;-68
2023/12/27 07:38:49;;;;;;;11.80;6.80;;;;;;;7.78;79.75;98674.77;79776;1298;3018434;-74
2023/12/27 07:41:16;;;;;;;13.80;7.00;;;;;;;8.01;78.84;98674.95;79633;1297;3011579;-70
2023/12/27 07:43:44;;;;;;;12.80;7.30;;;;;;;7.77;78.31;98677.96;78501;1298;3026055;-69
2023/12/27 07:46:11;;;;;;;10.30;6.00;;;;;;;7.35;79.91;98678.58;79915;1294;3012880;-72
2023/12/27 07:48:38;;;;;;;12.70;6.60;;;;;;;7.35;79.64;98682.78;79683;1293;3011514;-73
2023/12/27 07:51:07;;;;;;;8.00;4.90;;;;;;;7.34;79.20;98689.08;78652;1295;3049438;-71
2023/12/27 07:53:34;;;;;;;6.40;3.60;;;;;;;7.40;78.69;98691.50;79893;1293;3012788;-69
2023/12/27 07:56:01;;;;;;;8.60;3.80;;;;;;;7.52;77.98;98690.28;79853;1296;3013349;-72
2023/12/27 07:58:29;;;;;;;5.50;2.70;;;;;;;7.51;78.29;98696.29;78732;1297;3050821;-69
2023/12/27 08:00:55;;;;;;;4.60;1.80;;;;;;;7.57;78.78;98697.69;79897;1292;3013234;-69
2023/12/27 08:03:22;;;;;;;6.50;3.00;;;;;;;8.21;77.53;98700.34;79699;1293;3011581;-68
2023/12/27 08:05:51;;;;;;;8.90;3.30;;;;;;;8.62;75.04;98705.30;78532;1298;3028742;-70
2023/12/27 08:08:17;;;;;;;6.30;2.90;;;;;;;8.67;74.29;98709.01;79722;1297;3011992;-69
2023/12/27 08:10:44;;;;;;;6.00;3.50;;;;;;;8.53;74.58;98706.21;79617;1298;3011726;-70
2023/12/27 08:13:12;;;;;;;7.30;3.20;;;;;;;8.47;74.39;98705.52;78398;1297;3051672;-70
2023/12/27 08:15:40;;;;;;;9.00;4.20;;;;;;;8.31;74.42;98711.23;79598;1293;3013358;-69
2023/12/27 08:18:06;;;;;;;7.60;3.30;;;;;;;8.07;75.02;98715.73;79742;1295;3011879;-70
2023/12/27 08:20:35;;;;;;;5.50;2.80;;;;;;;7.95;74.99;98709.96;78454;1298;3048504;-70
2023/12/27 08:23:03;;;;;;;6.30;2.70;;;;;;;7.93;75.01;98712.73;79766;1297;3013516;-68
2023/12/27 08:25:29;;;;;;;6.00;3.50;;;;;;;7.88;75.21;98713.89;79782;1292;3011645;-67
2023/12/27 08:27:57;;;;;;;4.60;2.90;;;;;;;7.99;74.96;98709.39;78468;1297;3050635;-68
2023/12/27 08:30:24;;;;;;;7.20;3.40;;;;;;;8.06;74.06;98709.48;79896;1292;3018284;-69
2023/12/27 08:32:51;;;;;;;6.70;3.30;;;;;;;8.05;74.16;98699.60;79795;1292;3011916;-69
2023/12/27 08:35:19;;;;;;;5.50;3.40;;;;;;;8.05;74.13;98688.26;78507;1295;3026010;-68
2023/12/27 08:37:46;;;;;;;4.80;2.40;;;;;;;8.03;73.87;98681.42;79822;1298;3018831;-67
2023/12/27 08:40:12;;;;;;;4.70;2.70;;;;;;;8.06;73.62;98688.41;79728;1294;3013404;-68
2023/12/27 08:42:40;;;;;;;4.50;2.50;;;;;;;7.98;73.73;98689.39;78458;1297;3028757;-67
2023/12/27 08:45:08;;;;;;;5.00;2.10;;;;;;;8.11;73.43;98694.21;79833;1292;3013228;-69
2023/12/27 08:47:34;;;;;;;5.80;2.60;;;;;;;8.09;73.43;98691.31;79775;1297;3011414;-68
2023/12/27 08:50:04;;;;;;;4.30;2.50;;;;;;;8.01;73.90;98678.93;78474;1293;3026176;-68
2023/12/27 08:52:31;;;;;;;2.90;1.70;;;;;;;8.16;73.31;98680.10;79773;1297;3011908;-68
2023/12/27 08:55:02;;;;;;;5.10;2.00;;;;;;;8.15;73.31;98674.39;79199;1294;3011983;-68
2023/12/27 08:57:29;;;;;;;4.80;2.20;;;;;;;8.10;73.39;98662.33;79764;1295;3013052;-67
2023/12/27 08:59:55;;;;;;;5.00;1.90;;;;;;;8.05;73.72;98659.36;79746;1297;3011948;-69
2023/12/27 09:02:23;;;;;;;3.70;1.80;;;;;;;8.18;73.36;98667.41;78583;1297;3048954;-68
2023/12/27 09:04:50;;;;;;;3.00;1.60;;;;;;;8.31;72.08;98662.41;79767;1297;3013159;-66
2023/12/27 09:07:16;;;;;;;4.90;1.90;;;;;;;8.11;72.41;98668.52;79836;1296;3011512;-64
2023/12/27 09:09:44;;;;;;;6.80;2.80;;;;;;;8.23;72.00;98667.27;78475;1298;3026495;-66
2023/12/27 09:12:11;;;;;;;6.70;3.20;;;;;;;8.22;71.34;98665.21;79806;1297;3013934;-67
2023/12/27 09:14:39;;;;;;;8.10;2.90;;;;;;;8.19;71.67;98664.05;79685;1297;3011613;-72
2023/12/27 09:17:08;;;;;;;4.00;2.20;;;;;;;8.37;70.76;98679.27;78534;1297;3048736;-65
2023/12/27 09:19:35;;;;;;;3.80;1.60;;;;;;;8.31;67.99;98688.60;79703;1297;3012973;-68
2023/12/27 09:22:02;;;;;;;7.60;1.70;;;;;;;8.20;66.47;98684.17;79688;1298;3013083;-69
2023/12/27 09:24:31;;;;;;;2.70;1.30;;;;;;;8.21;66.44;98686.41;78607;1299;3052398;-69
2023/12/27 09:26:58;;;;;;;3.50;1.10;;;;;;;8.17;65.65;98689.94;79782;1292;3012889;-67
2023/12/27 09:29:25;;;;;;;5.60;1.60;;;;;;;8.21;65.09;98679.73;79995;1292;3011520;-72
2023/12/27 09:31:53;;;;;;;2.90;1.20;;;;;;;8.11;64.19;98683.54;78630;1292;3048792;-70
2023/12/27 09:34:19;;;;;;;3.90;1.60;;;;;;;8.22;63.81;98666.26;79766;1293;3012988;-69
2023/12/27 09:36:46;;;;;;;5.90;1.80;;;;;;;8.26;63.84;98680.70;79920;1292;3013474;-72
2023/12/27 09:39:14;;;;;;;4.00;1.40;;;;;;;8.13;63.06;98684.27;78633;1297;3028250;-68
2023/12/27 09:41:41;;;;;;;4.30;1.90;;;;;;;8.14;63.43;98674.98;79968;1292;3021292;-68
2023/12/27 09:44:07;;;;;;;9.00;2.90;;;;;;;8.25;63.71;98668.70;79780;1298;3011815;-69
2023/12/27 09:46:35;;;;;;;4.50;2.00;;;;;;;8.39;63.39;98669.91;78505;1292;3026752;-70
2023/12/27 09:49:02;;;;;;;6.90;2.00;;;;;;;8.35;62.82;98672.23;79853;1292;3020455;-68
2023/12/27 09:51:29;;;;;;;4.20;1.90;;;;;;;8.32;62.87;98673.15;79747;1292;3012105;-69
2023/12/27 09:53:58;;;;;;;8.00;1.90;;;;;;;8.37;62.80;98668.14;78584;1297;3053078;-69
2023/12/27 09:56:25;;;;;;;6.40;1.80;;;;;;;8.53;61.76;98673.23;79829;1298;3011785;-69
2023/12/27 09:59:14;;;;;;;2.50;1.30;;;;;;;8.57;61.49;98660.23;79907;1292;3011519;-67
2023/12/27 10:01:43;;;;;;;4.00;1.70;;;;;;;8.47;61.00;98676.56;78606;1293;3049655;-70
2023/12/27 10:04:23;;;;;;;3.70;1.50;;;;;;;8.52;61.28;98660.92;79956;1292;3013010;-72
2023/12/27 10:06:51;;;;;;;6.70;1.60;;;;;;;8.55;61.21;98659.14;78521;1297;3051800;-72
2023/12/27 10:09:18;;;;;;;4.40;2.50;;;;;;;8.55;61.09;98664.55;79837;1298;3018611;-71
2023/12/27 10:11:45;;;;;;;6.80;2.00;;;;;;;8.54;61.43;98666.23;79786;1292;3011843;-73
2023/12/27 10:14:13;;;;;;;4.30;1.50;;;;;;;8.31;62.04;98669.20;78775;1292;3029110;-68
2023/12/27 10:16:40;;;;;;;4.70;1.20;;;;;;;8.12;62.04;98680.67;79859;1292;3013049;-68
2023/12/27 10:19:09;;;;;;;3.10;1.40;;;;;;;8.11;62.71;98673.96;79814;1292;3013096;-67
2023/12/27 10:21:43;;;;;;;3.70;1.80;;;;;;;8.13;63.40;98682.86;78660;1294;3052684;-68
2023/12/27 10:24:10;;;;;;;4.20;1.60;;;;;;;8.22;63.58;98675.50;79715;1297;3012986;-65
2023/12/27 10:26:38;;;;;;;8.20;2.80;;;;;;;8.23;64.05;98674.56;78589;1298;3069608;-67
2023/12/27 10:29:07;;;;;;;6.20;2.50;;;;;;;8.20;64.55;98675.30;79983;1292;3013209;-66
2023/12/27 10:31:34;;;;;;;6.00;2.00;;;;;;;8.21;64.04;98674.72;79660;1293;3013114;-67
2023/12/27 10:34:03;;;;;;;7.10;2.20;;;;;;;8.11;63.86;98691.86;78759;1292;3054777;-67
2023/12/27 10:36:30;;;;;;;6.30;1.60;;;;;;;7.99;64.39;98676.66;79821;1298;3014490;-70
2023/12/27 10:38:59;;;;;;;4.20;1.90;;;;;;;7.99;64.90;98667.88;80097;1297;3011611;-69
2023/12/27 10:41:27;;;;;;;6.10;1.40;;;;;;;8.20;64.54;98670.64;78641;1298;3069008;-72
2023/12/27 10:43:53;;;;;;;3.60;2.00;;;;;;;8.32;64.17;98680.81;79887;1293;3013296;-69
2023/12/27 10:46:20;;;;;;;5.10;2.50;;;;;;;8.33;64.46;98669.45;79662;1293;3011577;-66
2023/12/27 10:48:48;;;;;;;4.80;2.10;;;;;;;8.37;64.42;98666.01;78488;1298;3026688;-69
2023/12/27 10:51:14;;;;;;;4.80;1.90;;;;;;;8.28;64.97;98668.34;79636;1298;3013824;-68
2023/12/27 10:53:42;;;;;;;7.00;2.00;;;;;;;8.35;64.47;98662.11;79831;1295;3011880;-65
2023/12/27 10:56:10;;;;;;;8.70;2.40;;;;;;;8.35;63.87;98660.89;78367;1295;3066825;-68
2023/12/27 10:58:38;;;;;;;5.80;2.10;;;;;;;8.41;63.32;98660.55;79653;1298;3013110;-69
2023/12/27 11:01:05;;;;;;;5.30;2.30;;;;;;;8.38;63.32;98658.48;79884;1292;3011467;-72
2023/12/27 11:03:33;;;;;;;5.60;2.00;;;;;;;8.40;63.28;98664.95;78512;1292;3053661;-68
2023/12/27 11:05:59;;;;;;;6.40;2.20;;;;;;;8.51;63.37;98648.58;79804;1306;3013158;-67
2023/12/27 11:08:27;;;;;;;2.90;1.30;;;;;;;8.62;62.49;98663.95;79923;1295;3011661;-70
2023/12/27 11:10:55;;;;;;;4.30;1.90;;;;;;;8.76;61.51;98662.15;78480;1297;3069474;-71
2023/12/27 11:13:24;;;;;;;2.60;1.00;;;;;;;8.52;61.88;98683.77;79750;1298;3013094;-72
2023/12/27 11:15:53;;;;;;;5.40;2.60;;;;;;;8.49;62.25;98652.34;79332;1292;3011623;-72
2023/12/27 11:18:21;;;;;;;4.90;2.00;;;;;;;8.44;62.85;98655.79;79531;1294;3013908;-69
2023/12/27 11:20:49;;;;;;;6.00;2.10;;;;;;;8.54;63.10;98656.92;80003;1295;3012188;-73
2023/12/27 11:23:17;;;;;;;3.50;2.20;;;;;;;8.64;63.43;98651.27;78636;1296;3051739;-73